Lazear, Colorado
Current Conditions -  °F | °C
As of 5:35 PM on Saturday 25 Oct 2014 (Local Time) from KAJZ Reporting Station
Clear Clear  
Wind Chill: 78°   Ceiling: Unl
Heat Index: 78°   Visibility: 10mi
Dew Point: 29°   Wind: 16mph
Humidity: 17%   Direction: 240°WSW
Pressure: 30.1"   Gusts: NA
Location:  38.78°N, 107.78°W
Report Text: KAJZ 252335Z AUTO 24014KT 10SM CLR 26/M02 A3010 RMK AO2 T02561017
Loading
Personal Weather Stations






























Interactive Weather Map
Tropical Storm Tracking
New forecast layout! Learn more

10-Day Weather Forecast

Advertisements
Track Severe Weather on mobile